createdAt,value
2019-01-06T00:00:36.573Z,5.17
2019-01-06T00:03:32.323Z,5.40
2019-01-06T00:06:26.257Z,5.70
2019-01-06T00:09:20.856Z,5.97
2019-01-06T00:12:12.866Z,5.70
2019-01-06T00:15:13.333Z,5.27
2019-01-06T00:18:08.191Z,6.07
2019-01-06T00:21:01.251Z,5.87
2019-01-06T00:24:10.334Z,5.50
2019-01-06T00:27:09.886Z,5.40
2019-01-06T00:33:29.328Z,5.73
2019-01-06T00:36:22.641Z,5.43
2019-01-06T00:42:29.335Z,5.50
2019-01-06T00:45:19.830Z,5.43
2019-01-06T00:48:11.367Z,5.83
2019-01-06T00:51:02.871Z,5.77
2019-01-06T00:54:10.673Z,5.37
2019-01-06T00:57:04.550Z,5.03
2019-01-06T00:59:58.423Z,5.70
2019-01-06T01:02:52.336Z,5.20
2019-01-06T01:09:09.539Z,5.57
2019-01-06T01:12:13.862Z,5.07
2019-01-06T01:15:14.715Z,5.17
2019-01-06T01:18:06.353Z,5.10
2019-01-06T01:21:09.848Z,4.63
2019-01-06T01:24:01.858Z,5.40
2019-01-06T01:27:14.774Z,5.13
2019-01-06T01:30:07.624Z,5.30
2019-01-06T01:33:02.727Z,5.17
2019-01-06T01:35:58.855Z,5.20
2019-01-06T01:38:51.342Z,5.57
2019-01-06T01:41:58.699Z,5.03
2019-01-06T01:44:56.659Z,5.17
2019-01-06T01:47:58.346Z,5.40
2019-01-06T01:54:22.363Z,5.10
2019-01-06T01:57:27.865Z,5.07
2019-01-06T02:00:20.445Z,5.50
2019-01-06T02:03:20.320Z,5.67
2019-01-06T02:16:40.406Z,5.80
2019-01-06T02:19:33.357Z,5.50
2019-01-06T02:25:54.670Z,5.23
2019-01-06T02:32:46.939Z,5.77
2019-01-06T02:35:51.662Z,6.00
2019-01-06T02:38:45.742Z,6.00
2019-01-06T02:41:44.354Z,6.00
2019-01-06T02:44:36.561Z,5.77
2019-01-06T02:47:40.730Z,6.13
2019-01-06T02:54:14.348Z,5.87
2019-01-06T02:57:08.997Z,5.63
2019-01-06T03:03:16.819Z,5.37
2019-01-06T03:09:47.788Z,5.03
2019-01-06T03:12:37.559Z,5.10
2019-01-06T03:15:45.565Z,5.77
2019-01-06T03:18:50.707Z,5.80
2019-01-06T03:25:13.910Z,6.40
2019-01-06T03:28:08.036Z,5.70
2019-01-06T03:30:58.564Z,6.20
2019-01-06T03:33:57.559Z,5.53
2019-01-06T03:37:09.250Z,5.30
2019-01-06T03:40:00.670Z,5.67
2019-01-06T03:43:03.557Z,5.70
2019-01-06T03:46:02.962Z,5.77
2019-01-06T03:49:01.365Z,5.50
2019-01-06T03:52:08.915Z,5.70
2019-01-06T03:54:59.364Z,5.93
2019-01-06T03:57:55.867Z,5.60
2019-01-06T04:00:46.700Z,6.10
2019-01-06T04:03:41.571Z,6.50
2019-01-06T04:06:37.358Z,5.80
2019-01-06T04:09:31.693Z,5.90
2019-01-06T04:12:34.360Z,6.00
2019-01-06T04:15:32.366Z,5.47
2019-01-06T04:18:24.355Z,5.47
2019-01-06T04:21:25.360Z,6.03
2019-01-06T04:24:24.335Z,5.23
2019-01-06T04:27:32.507Z,5.90
2019-01-06T04:30:24.366Z,5.77
2019-01-06T04:33:28.857Z,5.20
2019-01-06T04:36:32.562Z,5.23
2019-01-06T04:39:37.906Z,5.57
2019-01-06T04:42:45.105Z,5.20
2019-01-06T04:45:44.702Z,5.00
2019-01-06T04:48:41.876Z,5.03
2019-01-06T04:51:31.364Z,4.87
2019-01-06T04:54:26.369Z,4.20
2019-01-06T04:57:27.576Z,4.50
2019-01-06T05:00:38.864Z,4.37
2019-01-06T05:03:31.781Z,4.13
2019-01-06T05:06:41.391Z,4.10
2019-01-06T05:09:52.362Z,3.87
2019-01-06T05:12:42.626Z,3.60
2019-01-06T05:15:36.704Z,3.77
2019-01-06T05:18:35.836Z,3.47
2019-01-06T05:21:36.370Z,4.20
2019-01-06T05:24:34.370Z,3.80
2019-01-06T05:27:26.550Z,3.40
2019-01-06T05:30:23.707Z,4.17
2019-01-06T05:33:27.807Z,4.70
2019-01-06T05:36:20.661Z,5.40
2019-01-06T05:39:11.379Z,5.13
2019-01-06T05:42:14.962Z,4.97
2019-01-06T05:45:18.053Z,5.27
2019-01-06T05:48:11.558Z,5.20
2019-01-06T05:54:21.794Z,5.23
2019-01-06T05:57:23.041Z,5.87
2019-01-06T06:03:57.389Z,5.23
2019-01-06T06:06:51.398Z,4.90
2019-01-06T06:09:41.754Z,4.60
2019-01-06T06:12:33.582Z,4.70
2019-01-06T06:15:59.612Z,4.77
2019-01-06T06:19:06.606Z,4.73
2019-01-06T06:22:02.721Z,5.00
2019-01-06T06:24:53.729Z,5.03
2019-01-06T06:27:52.384Z,4.50
2019-01-06T06:31:04.347Z,5.47
2019-01-06T06:34:07.919Z,4.90
2019-01-06T06:37:02.391Z,5.37
2019-01-06T06:39:55.872Z,5.47
2019-01-06T06:43:05.735Z,5.10
2019-01-06T06:45:54.899Z,5.53
2019-01-06T06:48:46.919Z,4.80
2019-01-06T06:51:45.122Z,4.57
2019-01-06T06:54:43.681Z,5.23
2019-01-06T06:58:15.647Z,5.27
2019-01-06T07:01:27.342Z,4.93
2019-01-06T07:04:18.387Z,4.57
2019-01-06T07:07:24.416Z,4.73
2019-01-06T07:10:34.785Z,5.23
2019-01-06T07:13:46.671Z,4.53
2019-01-06T07:17:31.393Z,4.77
2019-01-06T07:20:27.261Z,4.77
2019-01-06T07:23:22.977Z,5.23
2019-01-06T07:26:21.791Z,4.30
2019-01-06T07:29:33.870Z,4.63
2019-01-06T07:32:29.414Z,6.37
2019-01-06T07:35:20.799Z,5.00
2019-01-06T07:38:14.263Z,3.67
2019-01-06T07:41:05.889Z,4.00
2019-01-06T07:44:17.325Z,3.90
2019-01-06T07:47:10.020Z,4.00
2019-01-06T07:50:04.715Z,4.30
2019-01-06T07:52:56.401Z,3.53
2019-01-06T07:55:58.609Z,3.87
2019-01-06T07:59:00.881Z,3.90
2019-01-06T08:01:50.868Z,4.23
2019-01-06T08:04:54.778Z,4.00
2019-01-06T08:07:55.693Z,3.93
2019-01-06T08:10:32.901Z,4.53
2019-01-06T08:13:24.728Z,4.17
2019-01-06T08:16:23.722Z,5.00
2019-01-06T08:19:31.895Z,5.60
2019-01-06T08:29:30.807Z,5.20
2019-01-06T08:32:41.930Z,5.70
2019-01-06T08:35:37.366Z,6.27
2019-01-06T08:38:31.583Z,5.70
2019-01-06T08:41:24.714Z,4.40
2019-01-06T08:44:17.450Z,5.30
2019-01-06T08:50:40.542Z,5.43
2019-01-06T08:53:36.453Z,5.23
2019-01-06T08:59:53.342Z,4.77
2019-01-06T09:02:57.753Z,5.13
2019-01-06T09:39:42.675Z,5.67
2019-01-06T09:48:49.499Z,5.37
2019-01-06T09:55:34.078Z,3.93
2019-01-06T09:58:47.607Z,4.00
2019-01-06T10:01:53.157Z,4.97
2019-01-06T10:08:19.717Z,4.80
2019-01-06T10:15:01.030Z,4.90
2019-01-06T10:17:51.371Z,4.80
2019-01-06T10:20:46.769Z,4.90
2019-01-06T10:23:39.271Z,4.83
2019-01-06T10:29:57.125Z,3.53
2019-01-06T10:36:04.744Z,3.23
2019-01-06T10:42:35.602Z,3.63
2019-01-06T10:45:36.683Z,4.17
2019-01-06T10:51:54.093Z,4.20
2019-01-06T10:58:14.817Z,3.47
2019-01-06T11:22:10.588Z,2.97
2019-01-06T11:25:39.247Z,3.20
2019-01-06T11:28:37.227Z,3.40
2019-01-06T11:31:44.722Z,2.40
2019-01-06T11:34:36.855Z,3.10
2019-01-06T11:44:44.450Z,2.87
2019-01-06T11:47:44.968Z,2.87
2019-01-06T11:54:18.186Z,2.97
2019-01-06T12:00:49.965Z,2.90
2019-01-06T12:03:51.636Z,3.50
2019-01-06T12:10:09.705Z,2.67
2019-01-06T12:13:06.018Z,2.67
2019-01-06T12:19:42.324Z,3.10
2019-01-06T12:26:29.857Z,2.40
2019-01-06T12:29:30.836Z,2.60
2019-01-06T12:35:51.511Z,2.90
2019-01-06T12:38:46.660Z,2.87
2019-01-06T12:45:26.125Z,2.77
2019-01-06T12:51:43.603Z,2.67
2019-01-06T12:58:31.087Z,2.80
2019-01-06T13:08:51.835Z,3.13
2019-01-06T13:15:44.300Z,2.67
2019-01-06T13:18:42.791Z,2.73
2019-01-06T13:25:07.097Z,3.20
2019-01-06T13:28:19.910Z,2.67
2019-01-06T13:31:20.643Z,2.80
2019-01-06T13:34:40.734Z,2.93
2019-01-06T13:37:33.178Z,3.47
2019-01-06T13:40:25.002Z,3.10
2019-01-06T13:47:01.805Z,2.93
2019-01-06T13:49:53.220Z,3.50
2019-01-06T13:59:08.333Z,2.83
2019-01-06T14:02:20.433Z,3.10
2019-01-06T14:11:59.633Z,3.00
2019-01-06T14:14:58.909Z,3.37
2019-01-06T14:18:21.973Z,3.67
2019-01-06T14:21:16.355Z,3.43
2019-01-06T14:24:26.643Z,3.37
2019-01-06T14:27:26.585Z,3.23
2019-01-06T14:30:32.389Z,3.80
2019-01-06T14:33:25.751Z,2.70
2019-01-06T14:36:18.193Z,2.60
2019-01-06T14:39:13.100Z,2.87
2019-01-06T14:42:17.307Z,3.23
2019-01-06T14:48:37.061Z,2.70
2019-01-06T14:51:47.096Z,3.17
2019-01-06T14:58:07.990Z,2.57
2019-01-06T15:01:00.636Z,3.20
2019-01-06T15:03:54.510Z,2.50
2019-01-06T15:07:00.272Z,2.60
2019-01-06T15:09:50.113Z,2.80
2019-01-06T15:12:48.014Z,2.77
2019-01-06T15:15:39.682Z,2.87
2019-01-06T15:22:14.491Z,3.93
2019-01-06T15:25:20.117Z,3.23
2019-01-06T15:28:05.518Z,3.60
2019-01-06T15:31:20.118Z,3.10
2019-01-06T15:34:13.337Z,3.40
2019-01-06T15:37:10.116Z,3.00
2019-01-06T15:40:19.528Z,3.40
2019-01-06T15:46:23.233Z,3.07
2019-01-06T15:52:48.128Z,3.40
2019-01-06T15:58:43.596Z,4.13
2019-01-06T16:01:35.641Z,4.13
2019-01-06T16:04:26.124Z,3.87
2019-01-06T16:10:50.124Z,4.03
2019-01-06T16:17:28.353Z,4.30
2019-01-06T16:23:56.460Z,4.10
2019-01-06T16:30:31.923Z,4.87
2019-01-06T16:33:40.033Z,4.23
2019-01-06T16:50:24.780Z,4.80
2019-01-06T16:59:34.137Z,4.33
2019-01-06T17:02:38.781Z,5.00
2019-01-06T17:05:31.222Z,4.83
2019-01-06T17:08:36.283Z,5.33
2019-01-06T17:11:26.806Z,5.70
2019-01-06T17:14:20.834Z,6.10
2019-01-06T17:20:37.361Z,6.00
2019-01-06T17:27:24.104Z,6.03
2019-01-06T17:30:22.576Z,6.70
2019-01-06T17:33:35.703Z,5.80
2019-01-06T17:40:00.316Z,5.83
2019-01-06T17:42:55.267Z,5.40
2019-01-06T17:49:34.575Z,7.17
2019-01-06T17:52:28.987Z,7.60
2019-01-06T17:55:26.014Z,5.10
2019-01-06T17:58:39.045Z,5.67
2019-01-06T18:01:35.461Z,7.77
2019-01-06T18:04:32.665Z,7.03
2019-01-06T18:10:54.066Z,7.97
2019-01-06T18:17:22.164Z,6.87
2019-01-06T18:20:17.499Z,7.93
2019-01-06T18:26:39.496Z,9.33
2019-01-06T18:32:59.590Z,9.27
2019-01-06T18:35:58.582Z,8.03
2019-01-06T18:38:56.586Z,10.47
2019-01-06T18:41:46.888Z,12.10
2019-01-06T18:44:51.420Z,18.93
2019-01-06T18:47:53.893Z,13.53
2019-01-06T18:50:48.428Z,9.17
2019-01-06T18:53:47.580Z,7.87
2019-01-06T19:00:18.921Z,7.37
2019-01-06T19:06:48.377Z,7.57
2019-01-06T19:12:11.152Z,7.00
2019-01-06T19:15:07.921Z,6.10
2019-01-06T19:18:07.294Z,6.90
2019-01-06T20:14:54.546Z,5.57
2019-01-06T20:18:23.245Z,5.47
2019-01-06T20:24:58.948Z,5.63
2019-01-06T20:27:52.067Z,4.93
2019-01-06T20:34:12.176Z,5.60
2019-01-06T20:50:20.675Z,6.53
2019-01-06T20:56:54.710Z,7.90
2019-01-06T21:03:29.667Z,7.83
2019-01-06T21:09:40.964Z,5.90
2019-01-06T21:12:38.124Z,5.20
2019-01-06T21:18:58.335Z,5.87
2019-01-06T21:25:51.240Z,7.60
2019-01-06T21:32:30.228Z,9.30
2019-01-06T21:35:20.552Z,9.77
2019-01-06T21:38:12.228Z,8.67
2019-01-06T21:41:07.623Z,9.07
2019-01-06T21:54:04.645Z,5.70
2019-01-06T21:56:55.810Z,5.43
2019-01-06T22:00:05.659Z,5.50
2019-01-06T22:03:07.427Z,5.83
2019-01-06T22:05:59.861Z,7.93
2019-01-06T22:12:38.849Z,4.83
2019-01-06T22:21:55.674Z,5.60
2019-01-06T22:24:42.675Z,6.13
2019-01-06T22:31:00.942Z,13.67
2019-01-06T22:37:27.195Z,9.10
2019-01-06T22:43:50.888Z,6.20
2019-01-06T22:46:49.889Z,5.83
2019-01-06T22:53:21.263Z,4.53
2019-01-06T23:09:52.689Z,6.47
2019-01-06T23:12:48.306Z,5.80
2019-01-06T23:15:41.445Z,5.93
2019-01-06T23:22:18.067Z,4.83
2019-01-06T23:25:11.951Z,5.07
2019-01-06T23:31:31.161Z,5.47
2019-01-06T23:37:49.796Z,6.37
2019-01-06T23:40:39.984Z,7.17
2019-01-06T23:43:35.092Z,6.70
2019-01-06T23:46:26.570Z,6.10
2019-01-06T23:49:23.045Z,6.67
2019-01-06T23:52:31.049Z,7.20
2019-01-06T23:55:29.574Z,6.37
2019-01-06T23:58:31.575Z,6.87
